Time;durP1;ratioP1;P1;durP2;ratioP2;P2;SDS_P1;SDS_P2;PMS_P1;PMS_P2;Temp;Humidity;BMP_temperature;BMP_pressure;BME280_temperature;BME280_humidity;BME280_pressure;Samples;Min_cycle;Max_cycle;Signal;HPM_P1;HPM_P2
2023/01/30 00:01:33;;;;;;;11.83;7.43;;;;;;;;;;5065037;28;20182;-77
2023/01/30 00:03:58;;;;;;;12.77;7.20;;;;;;;;;;5065393;28;20170;-78
2023/01/30 00:06:23;;;;;;;12.70;7.33;;;;;;;;;;5063208;28;20265;-78
2023/01/30 00:08:49;;;;;;;10.87;7.30;;;;;;;;;;5069817;28;20302;-78
2023/01/30 00:11:15;;;;;;;15.37;9.87;;;;;;;;;;5069574;28;20201;-78
2023/01/30 00:13:41;;;;;;;12.63;8.40;;;;;;;;;;5066347;28;20178;-78
2023/01/30 00:16:08;;;;;;;13.43;7.53;;;;;;;;;;5071083;28;20178;-77
2023/01/30 00:18:34;;;;;;;11.03;7.67;;;;;;;;;;5058317;28;20185;-77
2023/01/30 00:21:00;;;;;;;10.50;6.83;;;;;;;;;;5062932;28;20280;-77
2023/01/30 00:23:26;;;;;;;10.07;6.33;;;;;;;;;;5062260;28;20178;-77
2023/01/30 00:25:51;;;;;;;10.13;7.20;;;;;;;;;;5068757;28;20265;-77
2023/01/30 00:28:17;;;;;;;10.13;6.97;;;;;;;;;;5069927;28;20335;-77
2023/01/30 00:30:42;;;;;;;9.30;6.53;;;;;;;;;;5070232;28;20182;-77
2023/01/30 00:33:08;;;;;;;12.03;7.20;;;;;;;;;;5066871;28;20178;-77
2023/01/30 00:35:33;;;;;;;14.07;7.07;;;;;;;;;;5058255;28;20170;-78
2023/01/30 00:37:58;;;;;;;10.27;6.63;;;;;;;;;;5063159;28;20184;-77
2023/01/30 00:40:24;;;;;;;11.30;8.27;;;;;;;;;;5066553;28;20198;-77
2023/01/30 00:48:17;;;;;;;6.47;4.00;;;;;;;;;;5065569;28;20185;-78
2023/01/30 00:50:43;;;;;;;9.73;5.80;;;;;;;;;;5064439;28;20182;-77
2023/01/30 00:53:09;;;;;;;10.53;7.23;;;;;;;;;;5066488;28;20178;-77
2023/01/30 00:55:34;;;;;;;4.07;2.47;;;;;;;;;;5063791;28;20209;-77
2023/01/30 00:57:59;;;;;;;8.13;5.50;;;;;;;;;;5068109;28;20212;-77
2023/01/30 01:00:25;;;;;;;7.87;5.03;;;;;;;;;;5057484;28;20198;-77
2023/01/30 01:02:50;;;;;;;8.37;6.67;;;;;;;;;;5064591;28;20188;-78
2023/01/30 01:05:15;;;;;;;10.40;7.30;;;;;;;;;;5060104;28;20188;-77
2023/01/30 01:07:40;;;;;;;10.97;7.60;;;;;;;;;;5064101;28;20170;-77
2023/01/30 01:10:06;;;;;;;9.17;6.33;;;;;;;;;;5060998;28;20263;-78
2023/01/30 01:12:31;;;;;;;15.33;9.60;;;;;;;;;;5065023;28;20221;-77
2023/01/30 01:14:56;;;;;;;19.50;11.50;;;;;;;;;;5064184;28;20220;-77
2023/01/30 01:17:21;;;;;;;13.37;8.43;;;;;;;;;;5061781;28;20260;-77
2023/01/30 01:19:46;;;;;;;15.00;10.63;;;;;;;;;;5065031;28;20205;-77
2023/01/30 01:22:12;;;;;;;18.17;11.57;;;;;;;;;;5064824;28;20185;-77
2023/01/30 01:24:37;;;;;;;17.93;11.73;;;;;;;;;;5068820;28;20209;-77
2023/01/30 01:27:02;;;;;;;15.70;12.60;;;;;;;;;;5066109;28;20186;-78
2023/01/30 01:29:27;;;;;;;18.77;13.80;;;;;;;;;;5063723;28;20174;-77
2023/01/30 01:31:52;;;;;;;17.10;13.43;;;;;;;;;;5063111;28;20181;-77
2023/01/30 01:34:18;;;;;;;20.50;15.70;;;;;;;;;;5069045;28;20181;-77
2023/01/30 01:36:43;;;;;;;20.40;13.33;;;;;;;;;;5063817;28;20178;-77
2023/01/30 01:39:08;;;;;;;17.03;11.93;;;;;;;;;;5061870;28;20308;-78
2023/01/30 01:41:33;;;;;;;19.53;13.60;;;;;;;;;;5066235;28;20180;-77
2023/01/30 01:44:01;;;;;;;18.13;12.03;;;;;;;;;;5070465;28;20178;-77
2023/01/30 01:46:32;;;;;;;17.73;11.80;;;;;;;;;;5068106;28;20186;-77
2023/01/30 01:48:59;;;;;;;20.40;13.63;;;;;;;;;;5062115;28;20261;-77
2023/01/30 01:51:28;;;;;;;19.33;12.60;;;;;;;;;;5059360;28;20184;-77
2023/01/30 01:53:56;;;;;;;16.50;9.97;;;;;;;;;;5067794;28;20234;-77
2023/01/30 01:56:21;;;;;;;17.60;11.93;;;;;;;;;;5065149;28;20222;-77
2023/01/30 01:58:50;;;;;;;14.33;9.47;;;;;;;;;;5061617;28;20175;-76
2023/01/30 02:01:15;;;;;;;18.77;12.60;;;;;;;;;;5061755;28;20199;-77
2023/01/30 02:03:42;;;;;;;18.87;15.00;;;;;;;;;;5061704;28;20182;-77
2023/01/30 02:06:08;;;;;;;17.20;12.13;;;;;;;;;;5059490;28;20173;-77
2023/01/30 02:08:36;;;;;;;15.70;11.53;;;;;;;;;;5065678;28;20173;-77
2023/01/30 02:11:20;;;;;;;16.30;11.67;;;;;;;;;;5066139;28;20208;-77
2023/01/30 02:13:46;;;;;;;17.00;11.47;;;;;;;;;;5062455;28;20181;-77
2023/01/30 02:16:11;;;;;;;20.23;15.23;;;;;;;;;;5057605;28;20464;-78
2023/01/30 02:18:38;;;;;;;21.13;14.23;;;;;;;;;;5061045;28;20181;-77
2023/01/30 02:21:11;;;;;;;16.77;12.93;;;;;;;;;;5064490;28;20209;-77
2023/01/30 02:24:06;;;;;;;22.33;13.90;;;;;;;;;;5073963;28;20236;-77
2023/01/30 02:26:31;;;;;;;15.73;11.27;;;;;;;;;;5060406;28;20173;-77
2023/01/30 02:29:15;;;;;;;18.97;13.80;;;;;;;;;;5063348;28;20206;-77
2023/01/30 02:32:01;;;;;;;16.23;12.07;;;;;;;;;;5062297;28;20185;-77
2023/01/30 02:34:37;;;;;;;16.30;11.13;;;;;;;;;;5013778;28;20186;-77
2023/01/30 02:37:12;;;;;;;17.40;11.93;;;;;;;;;;5062163;28;20236;-77
2023/01/30 02:39:37;;;;;;;16.77;9.33;;;;;;;;;;5060043;28;20249;-77
2023/01/30 02:42:21;;;;;;;17.17;11.97;;;;;;;;;;5063166;28;20186;-77
2023/01/30 02:44:55;;;;;;;15.33;10.53;;;;;;;;;;5060411;28;20226;-77
2023/01/30 02:47:31;;;;;;;16.03;11.80;;;;;;;;;;5067605;28;20181;-77
2023/01/30 02:50:25;;;;;;;15.10;11.07;;;;;;;;;;5063400;28;20230;-78
2023/01/30 02:52:51;;;;;;;16.23;10.97;;;;;;;;;;5050173;28;20182;-77
2023/01/30 02:55:22;;;;;;;16.13;10.33;;;;;;;;;;5054985;28;20186;-77
2023/01/30 02:57:47;;;;;;;13.93;9.67;;;;;;;;;;5066636;28;20181;-77
2023/01/30 03:00:14;;;;;;;13.70;9.07;;;;;;;;;;5055202;28;20217;-78
2023/01/30 03:03:06;;;;;;;14.17;9.03;;;;;;;;;;5067701;28;20308;-77
2023/01/30 03:05:50;;;;;;;11.67;8.53;;;;;;;;;;5065174;28;20190;-78
2023/01/30 03:08:18;;;;;;;12.43;7.43;;;;;;;;;;5064106;28;20170;-77
2023/01/30 03:11:04;;;;;;;13.73;8.87;;;;;;;;;;5065048;28;20202;-77
2023/01/30 03:13:48;;;;;;;12.03;8.63;;;;;;;;;;5062921;28;20324;-77
2023/01/30 03:16:22;;;;;;;12.63;9.13;;;;;;;;;;5056021;28;20189;-77
2023/01/30 03:18:48;;;;;;;11.33;8.27;;;;;;;;;;5066406;28;20176;-77
2023/01/30 03:21:13;;;;;;;13.47;9.10;;;;;;;;;;5064746;28;20295;-77
2023/01/30 03:23:38;;;;;;;11.10;7.63;;;;;;;;;;5065118;28;20177;-77
2023/01/30 03:26:04;;;;;;;11.57;6.83;;;;;;;;;;5069347;28;20268;-77
2023/01/30 03:28:30;;;;;;;11.57;7.53;;;;;;;;;;5070172;28;20244;-77
2023/01/30 03:30:56;;;;;;;12.70;7.37;;;;;;;;;;5071849;28;20199;-77
2023/01/30 03:33:21;;;;;;;11.20;7.00;;;;;;;;;;5065163;28;20272;-78
2023/01/30 03:35:46;;;;;;;9.67;7.03;;;;;;;;;;5069761;28;20186;-77
2023/01/30 03:38:12;;;;;;;10.30;7.00;;;;;;;;;;5072396;28;20177;-78
2023/01/30 03:40:38;;;;;;;10.70;6.60;;;;;;;;;;5070669;28;20197;-77
2023/01/30 03:43:03;;;;;;;10.67;7.37;;;;;;;;;;5067303;28;20169;-77
2023/01/30 03:45:28;;;;;;;11.60;8.47;;;;;;;;;;5068351;28;20262;-77
2023/01/30 03:47:53;;;;;;;8.43;6.97;;;;;;;;;;5069151;28;20371;-78
2023/01/30 03:50:18;;;;;;;9.83;6.57;;;;;;;;;;5067976;28;20243;-77
2023/01/30 03:52:44;;;;;;;12.13;7.30;;;;;;;;;;5071390;28;20178;-76
2023/01/30 03:55:09;;;;;;;9.43;5.77;;;;;;;;;;5067705;28;20205;-77
2023/01/30 03:57:35;;;;;;;9.10;6.27;;;;;;;;;;5066052;28;20260;-77
2023/01/30 04:00:00;;;;;;;7.50;5.57;;;;;;;;;;5068081;28;20190;-78
2023/01/30 04:02:25;;;;;;;9.87;6.43;;;;;;;;;;5064683;28;20175;-77
2023/01/30 04:04:51;;;;;;;9.03;6.87;;;;;;;;;;5067115;28;20216;-77
2023/01/30 04:07:16;;;;;;;8.63;6.53;;;;;;;;;;5069007;28;20204;-79
2023/01/30 04:09:41;;;;;;;9.13;6.60;;;;;;;;;;5069812;28;20209;-77
2023/01/30 04:12:07;;;;;;;8.50;6.30;;;;;;;;;;5066042;28;20228;-77
2023/01/30 04:14:32;;;;;;;9.90;6.13;;;;;;;;;;5064730;28;20183;-78
2023/01/30 04:16:57;;;;;;;8.67;6.57;;;;;;;;;;5066283;28;20181;-77
2023/01/30 04:19:22;;;;;;;8.93;5.90;;;;;;;;;;5065382;28;20208;-77
2023/01/30 04:21:47;;;;;;;9.33;6.17;;;;;;;;;;5069920;28;20181;-77
2023/01/30 04:24:13;;;;;;;8.63;6.07;;;;;;;;;;5067137;28;20186;-77
2023/01/30 04:26:38;;;;;;;6.50;5.07;;;;;;;;;;5068691;28;20209;-77
2023/01/30 04:29:03;;;;;;;5.73;3.80;;;;;;;;;;5067960;28;20204;-77
2023/01/30 04:31:28;;;;;;;5.57;3.73;;;;;;;;;;5070686;28;20219;-77
2023/01/30 04:33:53;;;;;;;6.30;3.63;;;;;;;;;;5062409;28;20206;-78
2023/01/30 04:36:19;;;;;;;5.73;4.07;;;;;;;;;;5069619;28;20242;-77
2023/01/30 04:38:44;;;;;;;5.37;3.23;;;;;;;;;;5068519;28;20174;-77
2023/01/30 04:41:09;;;;;;;4.57;3.30;;;;;;;;;;5065901;28;20201;-77
2023/01/30 04:43:34;;;;;;;5.70;3.87;;;;;;;;;;5059531;28;20182;-77
2023/01/30 04:45:59;;;;;;;4.70;3.23;;;;;;;;;;5065160;28;20174;-77
2023/01/30 04:48:25;;;;;;;6.17;3.57;;;;;;;;;;5065966;28;20206;-78
2023/01/30 04:50:51;;;;;;;4.57;3.47;;;;;;;;;;5064706;28;20198;-77
2023/01/30 04:53:17;;;;;;;5.70;3.50;;;;;;;;;;5073907;28;20170;-77
2023/01/30 04:55:42;;;;;;;5.40;4.27;;;;;;;;;;5059211;28;20197;-77
2023/01/30 04:58:07;;;;;;;5.37;3.60;;;;;;;;;;5061916;28;20182;-79
2023/01/30 05:00:33;;;;;;;7.07;3.97;;;;;;;;;;5059137;28;20205;-77
2023/01/30 05:02:58;;;;;;;4.33;3.20;;;;;;;;;;5064054;28;20171;-77
2023/01/30 05:05:24;;;;;;;3.27;2.60;;;;;;;;;;5066052;28;20203;-77
2023/01/30 05:07:50;;;;;;;3.63;2.50;;;;;;;;;;5062589;28;20170;-77
2023/01/30 05:10:15;;;;;;;5.97;3.20;;;;;;;;;;5062095;28;20223;-77
2023/01/30 05:12:41;;;;;;;4.37;3.17;;;;;;;;;;5064950;28;20220;-77
2023/01/30 05:15:06;;;;;;;5.17;3.37;;;;;;;;;;5064403;28;20235;-78
2023/01/30 05:17:32;;;;;;;6.30;2.80;;;;;;;;;;5060739;28;20193;-78
2023/01/30 05:19:57;;;;;;;5.83;3.40;;;;;;;;;;5067281;28;20209;-77
2023/01/30 05:22:23;;;;;;;4.77;3.63;;;;;;;;;;5070257;28;20181;-78
2023/01/30 05:24:48;;;;;;;7.33;4.20;;;;;;;;;;5062062;28;20200;-78
2023/01/30 05:27:13;;;;;;;8.23;4.17;;;;;;;;;;5065473;28;20227;-78
2023/01/30 05:29:38;;;;;;;8.00;3.97;;;;;;;;;;5063912;28;20186;-78
2023/01/30 05:32:03;;;;;;;27.43;17.13;;;;;;;;;;5063615;28;20224;-77
2023/01/30 05:34:29;;;;;;;6.50;4.90;;;;;;;;;;5061543;28;20181;-78
2023/01/30 05:36:54;;;;;;;21.17;10.33;;;;;;;;;;5063536;28;20181;-77
2023/01/30 05:39:19;;;;;;;11.07;6.33;;;;;;;;;;5062508;28;20183;-78
2023/01/30 05:41:44;;;;;;;8.43;4.93;;;;;;;;;;5063089;28;20266;-78
2023/01/30 05:44:09;;;;;;;34.77;16.50;;;;;;;;;;5062344;28;20166;-78
2023/01/30 05:46:35;;;;;;;4.63;3.30;;;;;;;;;;5065281;28;20185;-78
2023/01/30 05:49:02;;;;;;;25.67;13.20;;;;;;;;;;5062775;28;20174;-78
2023/01/30 05:51:28;;;;;;;30.40;17.77;;;;;;;;;;5068008;28;20174;-77
2023/01/30 05:53:53;;;;;;;8.67;6.43;;;;;;;;;;5064489;28;20197;-78
2023/01/30 05:56:18;;;;;;;13.33;8.47;;;;;;;;;;5067604;28;20212;-79
2023/01/30 05:58:50;;;;;;;9.10;6.87;;;;;;;;;;5062863;28;20274;-78
2023/01/30 06:01:15;;;;;;;9.47;5.43;;;;;;;;;;5062543;28;20216;-78
2023/01/30 06:03:40;;;;;;;10.43;7.63;;;;;;;;;;5062582;28;20205;-77
2023/01/30 06:06:06;;;;;;;4.93;3.80;;;;;;;;;;5067401;28;20202;-78
2023/01/30 06:08:31;;;;;;;7.90;7.03;;;;;;;;;;5067925;28;20174;-78
2023/01/30 06:11:04;;;;;;;12.33;8.07;;;;;;;;;;5066756;28;20217;-78
2023/01/30 06:13:29;;;;;;;6.40;4.20;;;;;;;;;;5063247;28;20317;-78
2023/01/30 06:15:54;;;;;;;7.23;4.07;;;;;;;;;;5063027;28;20273;-78
2023/01/30 06:18:20;;;;;;;4.60;3.40;;;;;;;;;;5057799;28;20173;-77
2023/01/30 06:20:48;;;;;;;7.73;4.67;;;;;;;;;;5064536;28;20228;-78
2023/01/30 06:23:14;;;;;;;5.77;3.80;;;;;;;;;;5064334;28;20267;-78
2023/01/30 06:25:42;;;;;;;4.33;3.30;;;;;;;;;;5064013;28;20189;-79
2023/01/30 06:28:07;;;;;;;4.60;2.97;;;;;;;;;;5063186;28;20179;-77
2023/01/30 06:30:32;;;;;;;4.53;2.73;;;;;;;;;;5063813;28;20204;-77
2023/01/30 06:32:57;;;;;;;4.47;3.23;;;;;;;;;;5061499;28;20208;-79
2023/01/30 06:35:22;;;;;;;3.47;2.60;;;;;;;;;;5057183;28;20213;-77
2023/01/30 06:37:48;;;;;;;4.23;3.07;;;;;;;;;;5058730;28;20249;-77
2023/01/30 06:40:13;;;;;;;3.67;3.07;;;;;;;;;;5064212;28;20363;-78
2023/01/30 06:42:42;;;;;;;3.33;2.40;;;;;;;;;;5067212;28;20190;-77
2023/01/30 06:45:08;;;;;;;3.03;2.20;;;;;;;;;;5061862;28;20171;-78
2023/01/30 06:47:33;;;;;;;3.13;2.53;;;;;;;;;;5058978;28;20179;-78
2023/01/30 06:49:59;;;;;;;3.97;2.93;;;;;;;;;;5064014;28;20203;-78
2023/01/30 06:52:24;;;;;;;5.63;4.30;;;;;;;;;;5065499;28;20182;-78
2023/01/30 06:54:49;;;;;;;3.37;2.57;;;;;;;;;;5059698;28;20186;-78
2023/01/30 06:57:14;;;;;;;3.93;3.30;;;;;;;;;;5059752;28;20274;-78
2023/01/30 06:59:39;;;;;;;4.50;3.77;;;;;;;;;;5058702;28;20285;-78
2023/01/30 07:02:05;;;;;;;5.73;4.67;;;;;;;;;;5067869;28;20174;-78
2023/01/30 07:04:30;;;;;;;3.90;3.33;;;;;;;;;;5065038;28;20178;-79
2023/01/30 07:06:56;;;;;;;3.67;3.33;;;;;;;;;;5060140;28;20589;-78
2023/01/30 07:09:21;;;;;;;3.70;3.27;;;;;;;;;;5067545;28;20231;-78
2023/01/30 07:11:47;;;;;;;3.27;2.97;;;;;;;;;;5059303;28;20238;-79
2023/01/30 07:14:12;;;;;;;5.17;3.23;;;;;;;;;;5061667;28;20191;-78
2023/01/30 07:16:37;;;;;;;3.20;2.50;;;;;;;;;;5069971;28;20184;-78
2023/01/30 07:19:03;;;;;;;5.07;2.40;;;;;;;;;;5066189;28;20174;-78
2023/01/30 07:21:29;;;;;;;3.13;2.70;;;;;;;;;;5068393;28;20254;-78
2023/01/30 07:23:54;;;;;;;3.30;2.43;;;;;;;;;;5070261;28;20215;-78
2023/01/30 07:26:20;;;;;;;3.47;2.63;;;;;;;;;;5065979;28;20207;-78
2023/01/30 07:28:45;;;;;;;4.37;2.43;;;;;;;;;;5067557;28;20178;-78
2023/01/30 07:31:10;;;;;;;3.47;2.73;;;;;;;;;;5063742;28;20179;-79
2023/01/30 07:33:36;;;;;;;4.63;2.60;;;;;;;;;;5066614;28;20193;-78
2023/01/30 07:36:01;;;;;;;3.27;2.30;;;;;;;;;;5064041;28;20175;-78
2023/01/30 07:38:26;;;;;;;3.20;2.90;;;;;;;;;;5069909;28;20181;-78
2023/01/30 07:40:51;;;;;;;3.07;2.20;;;;;;;;;;5063129;28;20239;-79
2023/01/30 07:43:17;;;;;;;2.33;2.10;;;;;;;;;;5070191;28;20187;-78
2023/01/30 07:45:43;;;;;;;4.13;2.73;;;;;;;;;;5069547;28;20203;-78
2023/01/30 07:48:13;;;;;;;6.77;3.00;;;;;;;;;;5065195;28;20183;-78
2023/01/30 07:50:38;;;;;;;5.53;3.87;;;;;;;;;;5064184;28;20179;-78
2023/01/30 07:53:04;;;;;;;3.43;3.03;;;;;;;;;;5069649;28;20183;-78
2023/01/30 07:55:30;;;;;;;3.73;2.20;;;;;;;;;;5069501;28;20184;-78
2023/01/30 07:57:55;;;;;;;4.33;2.83;;;;;;;;;;5069562;28;20198;-78
2023/01/30 08:00:20;;;;;;;7.13;4.73;;;;;;;;;;5058851;28;20307;-78
2023/01/30 08:02:45;;;;;;;4.70;4.20;;;;;;;;;;5069510;28;20186;-79
2023/01/30 08:05:11;;;;;;;5.13;4.07;;;;;;;;;;5065665;28;20175;-78
2023/01/30 08:07:36;;;;;;;4.57;3.13;;;;;;;;;;5065512;28;20182;-79
2023/01/30 08:10:01;;;;;;;5.27;4.13;;;;;;;;;;5062818;28;20211;-78
2023/01/30 08:12:27;;;;;;;4.27;3.90;;;;;;;;;;5059327;28;20220;-78
2023/01/30 08:14:53;;;;;;;4.37;3.50;;;;;;;;;;5061551;28;20282;-78
2023/01/30 08:17:18;;;;;;;5.33;3.60;;;;;;;;;;5063733;28;20314;-78
2023/01/30 08:19:43;;;;;;;4.40;4.00;;;;;;;;;;5070015;28;20207;-78
2023/01/30 08:22:08;;;;;;;5.43;3.47;;;;;;;;;;5071123;28;20183;-79
2023/01/30 08:24:34;;;;;;;6.10;4.30;;;;;;;;;;5069971;28;20171;-78
2023/01/30 08:26:59;;;;;;;5.93;3.87;;;;;;;;;;5064338;28;20176;-78
2023/01/30 08:29:24;;;;;;;4.73;3.83;;;;;;;;;;5064480;28;20207;-79
2023/01/30 08:31:49;;;;;;;5.70;5.20;;;;;;;;;;5069193;28;20256;-78
2023/01/30 08:34:15;;;;;;;6.33;5.77;;;;;;;;;;5061618;28;20168;-78
2023/01/30 08:36:40;;;;;;;3.93;3.50;;;;;;;;;;5065947;28;20451;-78
2023/01/30 08:39:05;;;;;;;5.53;4.90;;;;;;;;;;5067109;28;20179;-79
2023/01/30 08:41:30;;;;;;;5.00;3.93;;;;;;;;;;5060193;28;20300;-79
2023/01/30 08:43:55;;;;;;;4.70;3.77;;;;;;;;;;5066249;28;20197;-79
2023/01/30 08:46:21;;;;;;;5.63;3.50;;;;;;;;;;5065695;28;20176;-79
2023/01/30 08:48:46;;;;;;;3.73;3.30;;;;;;;;;;5071580;28;20253;-79
2023/01/30 08:51:11;;;;;;;3.70;3.17;;;;;;;;;;5069215;28;20176;-79
2023/01/30 08:53:36;;;;;;;2.83;2.30;;;;;;;;;;5064104;28;20358;-79
2023/01/30 08:56:02;;;;;;;3.00;2.70;;;;;;;;;;5067773;28;20176;-79
2023/01/30 08:58:27;;;;;;;3.00;2.80;;;;;;;;;;5059035;28;20188;-79
2023/01/30 09:00:52;;;;;;;3.40;2.80;;;;;;;;;;5059660;28;20191;-79
2023/01/30 09:03:18;;;;;;;3.07;2.67;;;;;;;;;;5065538;28;20187;-80
2023/01/30 09:05:43;;;;;;;2.40;2.20;;;;;;;;;;5064773;28;20171;-80
2023/01/30 09:08:08;;;;;;;4.93;2.80;;;;;;;;;;5065489;28;20321;-79
2023/01/30 09:10:34;;;;;;;2.60;2.40;;;;;;;;;;5068297;28;20205;-80
2023/01/30 09:12:59;;;;;;;2.67;2.47;;;;;;;;;;5064808;28;20267;-81
2023/01/30 09:15:25;;;;;;;2.90;2.50;;;;;;;;;;5064077;28;20190;-80
2023/01/30 09:17:53;;;;;;;3.50;2.47;;;;;;;;;;5068076;28;20177;-80
2023/01/30 09:20:19;;;;;;;3.73;2.90;;;;;;;;;;5067704;28;20199;-80
2023/01/30 09:22:44;;;;;;;3.27;2.90;;;;;;;;;;5069326;28;20305;-80
2023/01/30 09:25:10;;;;;;;3.13;2.83;;;;;;;;;;5065417;28;20247;-81
2023/01/30 09:27:35;;;;;;;2.87;2.30;;;;;;;;;;5065269;28;20199;-80
2023/01/30 09:30:01;;;;;;;3.93;3.27;;;;;;;;;;5065601;28;20187;-81
2023/01/30 09:32:26;;;;;;;2.90;2.60;;;;;;;;;;5068150;28;20196;-80
2023/01/30 09:34:51;;;;;;;12.10;8.20;;;;;;;;;;5066001;28;20241;-80
2023/01/30 09:37:16;;;;;;;5.97;3.57;;;;;;;;;;5066345;28;20188;-80
2023/01/30 09:39:41;;;;;;;4.03;3.60;;;;;;;;;;5059279;28;20234;-80
2023/01/30 09:42:26;;;;;;;2.43;2.23;;;;;;;;;;5062368;28;20181;-79
2023/01/30 09:44:58;;;;;;;3.00;2.70;;;;;;;;;;5064981;28;20179;-79
2023/01/30 09:47:32;;;;;;;2.93;2.63;;;;;;;;;;5064543;28;20226;-80
2023/01/30 09:49:57;;;;;;;3.10;2.80;;;;;;;;;;5061415;28;20181;-79
2023/01/30 09:52:25;;;;;;;7.63;3.13;;;;;;;;;;5064917;28;20241;-79
2023/01/30 09:54:53;;;;;;;3.20;2.90;;;;;;;;;;5065434;28;20185;-79
2023/01/30 09:57:20;;;;;;;3.70;3.40;;;;;;;;;;5064577;28;20187;-79
2023/01/30 10:00:00;;;;;;;4.27;3.87;;;;;;;;;;5062789;28;20207;-79
2023/01/30 10:02:44;;;;;;;5.03;4.50;;;;;;;;;;5060895;28;20212;-81
2023/01/30 10:05:10;;;;;;;3.80;3.00;;;;;;;;;;5054943;28;20200;-81
2023/01/30 10:07:44;;;;;;;3.80;3.40;;;;;;;;;;5066749;28;20189;-81
2023/01/30 10:10:21;;;;;;;4.40;3.73;;;;;;;;;;5066466;28;20226;-81
2023/01/30 10:12:56;;;;;;;3.80;3.40;;;;;;;;;;5067685;28;20228;-81
2023/01/30 10:15:24;;;;;;;2.87;2.47;;;;;;;;;;5055865;28;20207;-81
2023/01/30 10:18:01;;;;;;;3.47;3.00;;;;;;;;;;5061155;28;20173;-81
2023/01/30 10:20:45;;;;;;;3.30;2.90;;;;;;;;;;5057673;28;20576;-81
2023/01/30 10:23:13;;;;;;;3.27;2.77;;;;;;;;;;5061386;28;20205;-81
2023/01/30 10:25:44;;;;;;;3.10;2.80;;;;;;;;;;5065970;28;20187;-81
2023/01/30 10:28:35;;;;;;;2.50;2.30;;;;;;;;;;5066785;28;20222;-81
2023/01/30 10:31:03;;;;;;;3.00;2.43;;;;;;;;;;5053454;28;20191;-81
2023/01/30 10:33:43;;;;;;;3.90;3.37;;;;;;;;;;5064706;28;20203;-81
2023/01/30 10:36:29;;;;;;;3.00;2.40;;;;;;;;;;5064077;28;20197;-82
2023/01/30 10:38:58;;;;;;;4.50;3.03;;;;;;;;;;5065593;28;20197;-80
2023/01/30 10:41:29;;;;;;;4.97;4.47;;;;;;;;;;5068347;28;20205;-82
2023/01/30 10:44:03;;;;;;;3.33;3.03;;;;;;;;;;5070332;28;20267;-85
2023/01/30 10:46:47;;;;;;;2.93;2.63;;;;;;;;;;5079872;28;20204;-82
2023/01/30 10:49:12;;;;;;;2.63;2.43;;;;;;;;;;5063348;28;20272;-82
2023/01/30 10:51:37;;;;;;;2.60;2.23;;;;;;;;;;5063890;28;20284;-82
2023/01/30 10:54:08;;;;;;;3.53;3.23;;;;;;;;;;5065203;28;20236;-82
2023/01/30 10:56:39;;;;;;;3.23;2.40;;;;;;;;;;5065205;28;20287;-81
2023/01/30 10:59:14;;;;;;;1.90;1.73;;;;;;;;;;5069506;28;20199;-82
2023/01/30 11:01:42;;;;;;;2.20;2.00;;;;;;;;;;5066568;28;20211;-81
2023/01/30 11:04:31;;;;;;;3.27;2.97;;;;;;;;;;5058245;28;20178;-82
2023/01/30 11:06:58;;;;;;;2.10;1.90;;;;;;;;;;5060605;28;20181;-81
2023/01/30 11:09:23;;;;;;;1.50;1.40;;;;;;;;;;5069191;28;20192;-81
2023/01/30 11:11:53;;;;;;;1.97;1.80;;;;;;;;;;5068270;28;20213;-82
2023/01/30 11:14:18;;;;;;;1.90;1.80;;;;;;;;;;5073310;28;20214;-82
2023/01/30 11:16:46;;;;;;;1.30;1.20;;;;;;;;;;5063981;28;20189;-83
2023/01/30 11:19:11;;;;;;;3.00;2.77;;;;;;;;;;5071724;28;20177;-82
2023/01/30 11:21:41;;;;;;;1.53;1.43;;;;;;;;;;5067113;28;20210;-83
2023/01/30 11:24:27;;;;;;;1.57;0.90;;;;;;;;;;5066639;28;20204;-84
2023/01/30 11:26:52;;;;;;;1.70;1.60;;;;;;;;;;5049123;28;20188;-82
2023/01/30 11:29:23;;;;;;;1.57;1.47;;;;;;;;;;5061698;28;20181;-84
2023/01/30 11:31:49;;;;;;;1.10;1.10;;;;;;;;;;5072663;28;20204;-85
2023/01/30 11:34:15;;;;;;;2.30;2.00;;;;;;;;;;5070302;28;20173;-83
2023/01/30 11:36:40;;;;;;;1.63;1.53;;;;;;;;;;5070874;28;20249;-85
2023/01/30 11:39:12;;;;;;;1.37;1.27;;;;;;;;;;5072142;28;20169;-86
2023/01/30 11:41:41;;;;;;;1.37;1.27;;;;;;;;;;5065107;28;20216;-85
2023/01/30 11:44:08;;;;;;;1.50;1.40;;;;;;;;;;5082494;28;20192;-85
2023/01/30 11:46:34;;;;;;;1.67;1.57;;;;;;;;;;5067256;28;20193;-84
2023/01/30 11:49:02;;;;;;;2.23;2.03;;;;;;;;;;5069264;28;20192;-84
2023/01/30 11:51:28;;;;;;;2.00;1.70;;;;;;;;;;5081632;28;20262;-84
2023/01/30 11:53:56;;;;;;;1.60;1.50;;;;;;;;;;5071714;28;20209;-84
2023/01/30 11:56:22;;;;;;;1.17;1.07;;;;;;;;;;5062378;28;20209;-85
2023/01/30 11:58:56;;;;;;;1.67;1.57;;;;;;;;;;5061657;28;20188;-86
2023/01/30 12:01:24;;;;;;;1.50;1.40;;;;;;;;;;5064373;28;20208;-86
2023/01/30 12:03:52;;;;;;;1.50;1.40;;;;;;;;;;5066171;28;20316;-84
2023/01/30 12:06:22;;;;;;;1.53;1.43;;;;;;;;;;5066852;28;20174;-84
2023/01/30 12:08:49;;;;;;;2.87;2.33;;;;;;;;;;5065864;28;20182;-86
2023/01/30 12:11:29;;;;;;;2.13;1.97;;;;;;;;;;5068765;28;20197;-85
2023/01/30 12:13:58;;;;;;;2.40;2.20;;;;;;;;;;5023214;28;20194;-84
2023/01/30 12:16:41;;;;;;;7.43;5.00;;;;;;;;;;5018839;28;20182;-84
2023/01/30 12:19:25;;;;;;;6.20;4.57;;;;;;;;;;5029691;28;20190;-84
2023/01/30 12:21:56;;;;;;;3.47;3.17;;;;;;;;;;5019501;28;20191;-84
2023/01/30 12:24:27;;;;;;;2.23;2.03;;;;;;;;;;5026316;28;20179;-84
2023/01/30 12:26:55;;;;;;;1.70;1.60;;;;;;;;;;5026275;28;20175;-85
2023/01/30 12:29:35;;;;;;;1.97;1.33;;;;;;;;;;5026649;28;20221;-83
2023/01/30 12:32:06;;;;;;;0.93;0.93;;;;;;;;;;5029850;28;20238;-84
2023/01/30 12:34:31;;;;;;;1.63;1.53;;;;;;;;;;5023129;28;20271;-84
2023/01/30 12:36:57;;;;;;;2.13;1.93;;;;;;;;;;5025794;28;20183;-84
2023/01/30 12:39:33;;;;;;;1.27;1.17;;;;;;;;;;5019035;28;20217;-83
2023/01/30 12:41:59;;;;;;;1.00;1.00;;;;;;;;;;5026804;28;20206;-84
2023/01/30 12:44:24;;;;;;;1.17;1.13;;;;;;;;;;5023944;28;20213;-84
2023/01/30 12:47:01;;;;;;;1.70;1.60;;;;;;;;;;5021031;28;20233;-83
2023/01/30 12:49:27;;;;;;;1.50;1.27;;;;;;;;;;5024872;28;20206;-84
2023/01/30 12:52:01;;;;;;;1.20;1.10;;;;;;;;;;5024105;28;20195;-83
2023/01/30 12:54:49;;;;;;;0.90;0.90;;;;;;;;;;5022579;28;20180;-82
2023/01/30 12:57:18;;;;;;;1.40;1.23;;;;;;;;;;5022927;28;20202;-84
2023/01/30 12:59:52;;;;;;;1.77;1.67;;;;;;;;;;5026212;28;20174;-84
2023/01/30 13:02:18;;;;;;;5.00;3.33;;;;;;;;;;5020470;28;20179;-83
2023/01/30 13:04:49;;;;;;;2.80;1.83;;;;;;;;;;5021441;28;20194;-83
2023/01/30 13:07:26;;;;;;;1.30;1.20;;;;;;;;;;5031981;28;20179;-83
2023/01/30 13:10:10;;;;;;;1.73;1.60;;;;;;;;;;5021105;28;20203;-82
2023/01/30 13:12:48;;;;;;;1.90;1.70;;;;;;;;;;5045755;28;20247;-83
2023/01/30 13:15:34;;;;;;;1.53;1.43;;;;;;;;;;5063667;28;20180;-83
2023/01/30 13:18:22;;;;;;;1.60;1.50;;;;;;;;;;5065420;28;20173;-82
2023/01/30 13:20:53;;;;;;;2.33;2.13;;;;;;;;;;5062976;28;20213;-82
2023/01/30 13:23:18;;;;;;;2.17;1.93;;;;;;;;;;5063008;28;20260;-83
2023/01/30 13:26:04;;;;;;;1.50;1.40;;;;;;;;;;5067488;28;20323;-82
2023/01/30 13:28:49;;;;;;;2.40;2.20;;;;;;;;;;5068346;28;20208;-82
2023/01/30 13:31:17;;;;;;;2.27;1.93;;;;;;;;;;5067809;28;20202;-81
2023/01/30 13:33:44;;;;;;;2.23;1.87;;;;;;;;;;5081145;28;20188;-81
2023/01/30 13:36:13;;;;;;;2.63;2.10;;;;;;;;;;5070022;28;20177;-81
2023/01/30 13:38:40;;;;;;;2.43;2.20;;;;;;;;;;5065590;28;20257;-81
2023/01/30 13:41:08;;;;;;;2.30;2.10;;;;;;;;;;5064019;28;20205;-81
2023/01/30 13:43:35;;;;;;;1.83;1.73;;;;;;;;;;5084209;28;20180;-81
2023/01/30 13:46:03;;;;;;;2.77;2.40;;;;;;;;;;5069125;28;20176;-81
2023/01/30 13:48:35;;;;;;;2.10;1.93;;;;;;;;;;5061895;28;20174;-81
2023/01/30 13:51:00;;;;;;;3.37;2.30;;;;;;;;;;5061733;28;20233;-81
2023/01/30 13:53:33;;;;;;;2.57;2.33;;;;;;;;;;5064274;28;20275;-81
2023/01/30 13:56:05;;;;;;;2.20;2.00;;;;;;;;;;5061374;28;20192;-81
2023/01/30 13:58:42;;;;;;;2.40;2.03;;;;;;;;;;5067201;28;20291;-81
2023/01/30 14:01:08;;;;;;;3.33;2.67;;;;;;;;;;5067096;28;20295;-81
2023/01/30 14:03:34;;;;;;;2.80;2.23;;;;;;;;;;5066099;28;20257;-81
2023/01/30 14:06:00;;;;;;;2.53;2.33;;;;;;;;;;5066316;28;20311;-81
2023/01/30 14:08:27;;;;;;;1.67;1.50;;;;;;;;;;5067755;28;20243;-81
2023/01/30 14:10:54;;;;;;;2.10;1.90;;;;;;;;;;5068283;28;20216;-81
2023/01/30 14:13:20;;;;;;;2.67;2.07;;;;;;;;;;5065494;28;20247;-81
2023/01/30 14:15:54;;;;;;;2.27;2.07;;;;;;;;;;5066655;28;20189;-81
2023/01/30 14:18:25;;;;;;;3.07;2.37;;;;;;;;;;5062726;28;20177;-81
2023/01/30 14:20:50;;;;;;;4.40;3.53;;;;;;;;;;5062243;28;20209;-81
2023/01/30 14:23:32;;;;;;;3.50;3.20;;;;;;;;;;5065131;28;20177;-81
2023/01/30 14:25:57;;;;;;;6.93;5.90;;;;;;;;;;5062402;28;20188;-81
2023/01/30 14:28:22;;;;;;;6.63;5.33;;;;;;;;;;5063838;28;20170;-81
2023/01/30 14:30:55;;;;;;;6.70;5.40;;;;;;;;;;5065266;28;20205;-81
2023/01/30 14:33:20;;;;;;;6.70;4.30;;;;;;;;;;5065509;28;20181;-81
2023/01/30 14:35:46;;;;;;;8.20;6.57;;;;;;;;;;5066953;28;20184;-81
2023/01/30 14:38:16;;;;;;;8.73;6.23;;;;;;;;;;5062460;28;20184;-81
2023/01/30 14:40:46;;;;;;;7.00;5.77;;;;;;;;;;5058772;28;20231;-82
2023/01/30 14:43:11;;;;;;;7.07;5.63;;;;;;;;;;5067795;28;20206;-81
2023/01/30 14:45:48;;;;;;;9.57;6.43;;;;;;;;;;5065470;28;20173;-81
2023/01/30 14:48:32;;;;;;;8.67;7.27;;;;;;;;;;5063449;28;20173;-81
2023/01/30 14:51:13;;;;;;;7.73;6.90;;;;;;;;;;5058574;28;20206;-81